< < Back
Terminal Aerodrome Forecast


Current Version              Previous Versions:   1  2  3  4  5  6  7  8  9  

Terminal Aerodrome Forecast

127
FTUS44 KMOB 212300 RRA
TAFMOB
TAF
KMOB 212353Z 2200/2224 05005KT 3SM BR OVC004
     FM220300 09004KT 5SM BR OVC010
     FM220800 09004KT 3SM BR VCSH OVC004
     FM221800 15009KT P6SM VCSH OVC010=

Latest METAR

954
SAUS80 KWBC 220400 RRA
MTRMOB
METAR KMOB 220356Z 09004KT 4SM BR OVC003 12/12 A3000 RMK AO2 SLP158
T01170117 $


USA.gov is the U.S. government's official web portal to all federal, state and local government web resources and services.